createdAt,value
2018-08-09T00:01:31.295Z,89.20
2018-08-09T00:03:59.981Z,89.72
2018-08-09T00:06:28.891Z,89.22
2018-08-09T00:08:57.855Z,89.23
2018-08-09T00:11:27.760Z,89.76
2018-08-09T00:13:56.681Z,89.18
2018-08-09T00:16:25.340Z,89.01
2018-08-09T00:18:54.131Z,88.54
2018-08-09T00:21:22.912Z,88.88
2018-08-09T00:23:51.581Z,88.39
2018-08-09T00:26:20.489Z,88.87
2018-08-09T00:28:49.104Z,88.38
2018-08-09T00:31:18.434Z,88.65
2018-08-09T00:33:47.514Z,88.39
2018-08-09T00:36:16.264Z,88.12
2018-08-09T00:38:44.999Z,88.52
2018-08-09T00:41:13.916Z,88.93
2018-08-09T00:43:42.714Z,88.74
2018-08-09T00:46:11.751Z,88.78
2018-08-09T00:48:40.780Z,88.82
2018-08-09T00:51:10.319Z,88.79
2018-08-09T00:53:39.231Z,90.42
2018-08-09T00:56:07.919Z,90.76
2018-08-09T00:58:36.750Z,90.54
2018-08-09T01:01:06.009Z,90.65
2018-08-09T01:03:34.782Z,90.50
2018-08-09T01:06:03.462Z,90.37
2018-08-09T01:08:32.737Z,89.86
2018-08-09T01:11:01.892Z,90.25
2018-08-09T01:13:30.689Z,90.33
2018-08-09T01:15:59.320Z,89.87
2018-08-09T01:18:28.901Z,89.77
2018-08-09T01:20:57.825Z,90.21
2018-08-09T01:23:27.101Z,90.04
2018-08-09T01:25:55.922Z,89.94
2018-08-09T01:28:25.227Z,90.69
2018-08-09T01:30:54.007Z,90.90
2018-08-09T01:33:23.010Z,91.21
2018-08-09T01:35:51.858Z,90.69
2018-08-09T01:38:20.711Z,90.67
2018-08-09T01:40:50.541Z,90.80
2018-08-09T01:43:30.476Z,90.30
2018-08-09T01:45:59.706Z,90.07
2018-08-09T01:48:29.040Z,90.57
2018-08-09T01:50:58.396Z,91.00
2018-08-09T01:53:27.142Z,90.81
2018-08-09T01:55:55.731Z,90.86
2018-08-09T01:58:24.320Z,90.78
2018-08-09T02:00:53.123Z,91.10
2018-08-09T02:03:22.352Z,90.77
2018-08-09T02:05:51.215Z,90.99
2018-08-09T02:08:19.881Z,91.39
2018-08-09T02:10:48.975Z,91.68
2018-08-09T02:13:17.722Z,91.48
2018-08-09T02:15:46.495Z,91.64
2018-08-09T02:18:15.410Z,92.18
2018-08-09T02:20:44.916Z,92.36
2018-08-09T02:23:14.304Z,92.78
2018-08-09T02:25:43.075Z,92.63
2018-08-09T02:28:12.606Z,92.42
2018-08-09T02:30:41.951Z,91.76
2018-08-09T02:33:11.058Z,91.75
2018-08-09T02:35:39.696Z,92.17
2018-08-09T02:38:08.341Z,92.21
2018-08-09T02:40:37.115Z,92.61
2018-08-09T02:43:06.042Z,92.42
2018-08-09T02:45:34.791Z,92.30
2018-08-09T02:48:03.455Z,92.23
2018-08-09T02:50:32.250Z,92.08
2018-08-09T02:53:00.972Z,92.51
2018-08-09T02:55:30.446Z,92.49
2018-08-09T02:57:59.312Z,92.22
2018-08-09T03:00:28.037Z,92.41
2018-08-09T03:02:56.817Z,92.37
2018-08-09T03:05:26.191Z,92.52
2018-08-09T03:07:55.003Z,91.81
2018-08-09T03:10:23.671Z,92.07
2018-08-09T03:12:52.420Z,92.33
2018-08-09T03:15:22.050Z,92.29
2018-08-09T03:17:50.662Z,92.23
2018-08-09T03:20:19.431Z,91.95
2018-08-09T03:22:49.265Z,91.87
2018-08-09T03:25:17.922Z,92.06
2018-08-09T03:27:47.235Z,92.46
2018-08-09T03:30:16.313Z,92.34
2018-08-09T03:32:45.130Z,92.58
2018-08-09T03:35:13.788Z,93.16
2018-08-09T03:37:43.241Z,93.36
2018-08-09T03:40:11.941Z,93.06
2018-08-09T03:42:41.431Z,92.63
2018-08-09T03:45:10.270Z,92.71
2018-08-09T03:47:38.871Z,92.85
2018-08-09T03:50:08.190Z,93.11
2018-08-09T03:52:36.901Z,93.34
2018-08-09T03:55:06.643Z,93.80
2018-08-09T03:57:35.460Z,93.06
2018-08-09T04:00:05.201Z,92.75
2018-08-09T04:02:33.950Z,93.19
2018-08-09T04:05:03.415Z,93.70
2018-08-09T04:07:32.858Z,93.81
2018-08-09T04:10:01.412Z,94.23
2018-08-09T04:12:30.471Z,93.82
2018-08-09T04:14:59.097Z,93.87
2018-08-09T04:17:27.703Z,93.90
2018-08-09T04:19:56.611Z,93.86
2018-08-09T04:22:26.093Z,94.22
2018-08-09T04:24:55.051Z,94.22
2018-08-09T04:27:23.696Z,94.18
2018-08-09T04:29:52.510Z,93.96
2018-08-09T04:32:22.176Z,94.35
2018-08-09T04:34:51.313Z,93.67
2018-08-09T04:37:19.932Z,93.86
2018-08-09T04:39:48.657Z,93.84
2018-08-09T04:42:18.020Z,93.44
2018-08-09T04:44:46.595Z,94.01
2018-08-09T04:47:15.405Z,93.96
2018-08-09T04:49:44.087Z,93.38
2018-08-09T04:52:12.872Z,94.07
2018-08-09T04:54:42.181Z,93.93
2018-08-09T04:57:11.272Z,93.85
2018-08-09T04:59:39.967Z,93.77
2018-08-09T05:02:08.812Z,93.57
2018-08-09T05:04:37.920Z,93.58
2018-08-09T05:07:07.254Z,93.83
2018-08-09T05:09:36.710Z,93.01
2018-08-09T05:12:05.398Z,94.12
2018-08-09T05:14:34.550Z,93.81
2018-08-09T05:17:04.081Z,93.29
2018-08-09T05:19:32.971Z,93.26
2018-08-09T05:22:01.606Z,92.98
2018-08-09T05:24:30.691Z,92.92
2018-08-09T05:26:59.747Z,93.36
2018-08-09T05:29:28.456Z,93.15
2018-08-09T05:31:57.209Z,92.69
2018-08-09T05:34:25.873Z,92.85
2018-08-09T05:36:54.597Z,92.05
2018-08-09T05:39:23.267Z,91.75
2018-08-09T05:41:52.676Z,91.76
2018-08-09T05:44:21.685Z,91.55
2018-08-09T05:46:51.025Z,90.68
2018-08-09T05:49:19.716Z,89.10
2018-08-09T05:51:48.392Z,85.20
2018-08-09T05:54:17.297Z,81.87
2018-08-09T05:56:46.124Z,76.43
2018-08-09T05:59:15.456Z,73.72
2018-08-09T06:01:44.058Z,73.32
2018-08-09T06:04:12.721Z,71.23
2018-08-09T06:06:41.821Z,70.77
2018-08-09T06:09:11.940Z,71.91
2018-08-09T06:11:40.692Z,73.21
2018-08-09T06:14:10.311Z,73.56
2018-08-09T06:16:39.527Z,70.05
2018-08-09T06:19:08.976Z,66.18
2018-08-09T06:21:38.122Z,63.85
2018-08-09T06:24:07.240Z,62.43
2018-08-09T06:26:36.656Z,60.83
2018-08-09T06:29:05.416Z,58.67
2018-08-09T06:31:34.992Z,56.24
2018-08-09T06:34:03.999Z,56.10
2018-08-09T06:36:32.625Z,55.40
2018-08-09T06:39:01.603Z,54.40
2018-08-09T06:41:30.489Z,52.04
2018-08-09T06:43:59.256Z,51.61
2018-08-09T06:46:28.304Z,51.63
2018-08-09T06:48:57.136Z,53.10
2018-08-09T06:51:25.802Z,52.30
2018-08-09T06:53:54.435Z,51.16
2018-08-09T06:56:23.382Z,48.98
2018-08-09T06:58:52.600Z,47.77
2018-08-09T07:01:21.366Z,45.66
2018-08-09T07:03:50.956Z,45.33
2018-08-09T07:06:19.682Z,44.91
2018-08-09T07:08:48.460Z,43.96
2018-08-09T07:11:17.072Z,42.69
2018-08-09T07:13:45.877Z,42.45
2018-08-09T07:16:15.123Z,40.65
2018-08-09T07:18:43.706Z,40.34
2018-08-09T07:21:12.510Z,38.44
2018-08-09T07:23:41.865Z,37.60
2018-08-09T07:26:10.877Z,35.91
2018-08-09T07:28:39.818Z,36.65
2018-08-09T07:31:08.587Z,36.53
2018-08-09T07:33:37.496Z,35.01
2018-08-09T07:36:06.716Z,33.76
2018-08-09T07:38:35.816Z,33.74
2018-08-09T07:41:05.552Z,32.64
2018-08-09T07:43:34.723Z,31.93
2018-08-09T07:46:04.037Z,32.32
2018-08-09T07:48:33.272Z,33.18
2018-08-09T07:51:02.477Z,32.11
2018-08-09T07:53:31.747Z,31.95
2018-08-09T07:56:00.911Z,30.98
2018-08-09T07:58:29.868Z,30.29
2018-08-09T08:00:59.394Z,29.69
2018-08-09T08:03:28.372Z,30.68
2018-08-09T08:05:57.743Z,30.22
2018-08-09T08:08:26.880Z,30.48
2018-08-09T08:10:56.048Z,30.33
2018-08-09T08:13:25.388Z,29.47
2018-08-09T08:15:54.547Z,27.51
2018-08-09T08:18:23.947Z,26.72
2018-08-09T08:20:53.159Z,27.02
2018-08-09T08:23:22.172Z,25.78
2018-08-09T08:25:51.548Z,25.52
2018-08-09T08:28:21.868Z,24.34
2018-08-09T08:30:50.813Z,24.11
2018-08-09T08:33:20.092Z,24.73
2018-08-09T08:35:49.237Z,23.97
2018-08-09T08:38:18.584Z,24.06
2018-08-09T08:40:47.772Z,23.87
2018-08-09T08:43:17.826Z,23.36
2018-08-09T08:45:47.038Z,22.37
2018-08-09T08:48:16.296Z,23.47
2018-08-09T08:50:45.652Z,23.13
2018-08-09T08:53:15.183Z,23.22
2018-08-09T08:55:44.013Z,23.40
2018-08-09T08:58:12.862Z,23.65
2018-08-09T09:00:41.537Z,23.20
2018-08-09T09:03:10.646Z,23.54
2018-08-09T09:05:39.606Z,22.71
2018-08-09T09:08:08.493Z,21.85
2018-08-09T09:10:37.428Z,20.30
2018-08-09T09:13:06.733Z,19.64
2018-08-09T09:15:35.742Z,20.00
2018-08-09T09:18:04.708Z,21.00
2018-08-09T09:20:33.529Z,20.60
2018-08-09T09:23:02.532Z,20.50
2018-08-09T09:25:30.502Z,20.14
2018-08-09T09:27:58.339Z,20.28
2018-08-09T09:30:27.259Z,19.58
2018-08-09T09:32:56.284Z,18.87
2018-08-09T09:35:25.349Z,19.14
2018-08-09T09:37:54.258Z,19.68
2018-08-09T09:40:24.602Z,19.94
2018-08-09T09:42:53.417Z,19.92
2018-08-09T09:45:22.195Z,19.70
2018-08-09T09:47:51.729Z,19.02
2018-08-09T09:50:20.543Z,18.40
2018-08-09T09:52:50.246Z,17.98
2018-08-09T09:55:19.480Z,17.21
2018-08-09T09:57:47.526Z,17.47
2018-08-09T10:00:21.752Z,16.40
2018-08-09T10:02:49.976Z,16.37
2018-08-09T10:05:18.889Z,15.53
2018-08-09T10:07:46.926Z,15.94
2018-08-09T10:10:14.896Z,16.18
2018-08-09T10:12:44.033Z,16.65
2018-08-09T10:15:12.601Z,16.80
2018-08-09T10:17:41.419Z,16.56
2018-08-09T10:20:09.762Z,16.82
2018-08-09T10:22:38.570Z,16.09
2018-08-09T10:25:07.805Z,15.79
2018-08-09T10:27:36.704Z,15.51
2018-08-09T10:30:06.637Z,15.23
2018-08-09T10:32:35.503Z,15.63
2018-08-09T10:35:04.363Z,15.34
2018-08-09T10:37:33.523Z,15.72
2018-08-09T10:40:02.549Z,15.66
2018-08-09T10:42:31.359Z,15.24
2018-08-09T10:45:01.001Z,15.22
2018-08-09T10:47:30.046Z,15.25
2018-08-09T10:49:58.972Z,15.29
2018-08-09T10:52:27.698Z,15.51
2018-08-09T10:54:56.508Z,15.45
2018-08-09T10:57:26.153Z,16.58
2018-08-09T10:59:55.362Z,16.80
2018-08-09T11:02:24.563Z,19.14
2018-08-09T11:04:52.609Z,19.37
2018-08-09T11:07:20.607Z,20.09
2018-08-09T11:09:48.492Z,21.52
2018-08-09T11:12:17.144Z,21.12
2018-08-09T11:14:45.072Z,20.97
2018-08-09T11:17:12.895Z,21.70
2018-08-09T11:19:41.524Z,21.41
2018-08-09T11:22:09.369Z,23.06
2018-08-09T11:24:37.550Z,22.47
2018-08-09T11:27:06.138Z,22.50
2018-08-09T11:29:34.241Z,22.82
2018-08-09T11:32:02.358Z,22.61
2018-08-09T11:34:30.267Z,22.65
2018-08-09T11:36:58.162Z,22.98
2018-08-09T11:39:26.959Z,22.23
2018-08-09T11:41:55.554Z,23.24
2018-08-09T11:44:24.601Z,22.07
2018-08-09T11:46:53.497Z,22.36
2018-08-09T11:49:22.261Z,22.67
2018-08-09T11:51:51.342Z,22.91
2018-08-09T11:54:20.591Z,24.93
2018-08-09T11:56:49.849Z,24.88
2018-08-09T11:59:18.740Z,24.93
2018-08-09T12:01:48.379Z,25.20
2018-08-09T12:04:17.142Z,24.26
2018-08-09T12:06:46.005Z,23.58
2018-08-09T12:09:14.661Z,23.83
2018-08-09T12:11:44.219Z,24.69
2018-08-09T12:14:14.059Z,25.70
2018-08-09T12:16:42.859Z,25.29
2018-08-09T12:19:11.781Z,24.64
2018-08-09T12:21:40.706Z,25.25
2018-08-09T12:24:10.327Z,24.74
2018-08-09T12:26:39.547Z,24.92
2018-08-09T12:29:08.455Z,25.21
2018-08-09T12:31:37.102Z,25.13
2018-08-09T12:34:06.284Z,24.41
2018-08-09T12:36:35.680Z,25.00
2018-08-09T12:39:06.761Z,23.33
2018-08-09T12:41:35.487Z,23.91
2018-08-09T12:44:04.479Z,24.01
2018-08-09T12:46:32.379Z,24.55
2018-08-09T12:49:00.490Z,24.78
2018-08-09T12:51:28.596Z,23.96
2018-08-09T12:53:56.504Z,23.96
2018-08-09T12:56:24.334Z,24.82
2018-08-09T12:58:52.428Z,24.43
2018-08-09T13:01:21.348Z,25.40
2018-08-09T13:03:49.279Z,25.85
2018-08-09T13:06:17.176Z,25.47
2018-08-09T13:08:46.505Z,25.73
2018-08-09T13:11:21.279Z,24.63
2018-08-09T13:13:52.004Z,25.89
2018-08-09T13:16:20.795Z,26.29
2018-08-09T13:18:49.632Z,25.90
2018-08-09T13:21:18.532Z,25.75
2018-08-09T13:23:47.621Z,25.42
2018-08-09T13:26:16.278Z,25.50
2018-08-09T13:28:45.259Z,25.87
2018-08-09T13:31:14.414Z,25.50
2018-08-09T13:33:43.265Z,26.88
2018-08-09T13:36:11.123Z,26.08
2018-08-09T13:38:40.245Z,27.20
2018-08-09T13:41:09.313Z,33.30
2018-08-09T13:43:38.843Z,36.97
2018-08-09T13:46:07.819Z,38.05
2018-08-09T13:48:35.890Z,39.47
2018-08-09T13:51:04.869Z,40.27
2018-08-09T13:53:34.435Z,42.65
2018-08-09T13:56:03.560Z,43.56
2018-08-09T13:58:32.618Z,42.58
2018-08-09T14:01:01.561Z,42.21
2018-08-09T14:03:30.530Z,42.64
2018-08-09T14:05:59.265Z,43.48
2018-08-09T14:08:28.718Z,44.27
2018-08-09T14:10:57.489Z,43.57
2018-08-09T14:13:26.414Z,42.32
2018-08-09T14:15:55.783Z,42.35
2018-08-09T14:18:24.645Z,42.32
2018-08-09T14:20:53.763Z,42.91
2018-08-09T14:23:22.655Z,42.45
2018-08-09T14:25:51.480Z,41.02
2018-08-09T14:28:20.361Z,40.58
2018-08-09T14:30:49.949Z,40.48
2018-08-09T14:33:18.713Z,40.54
2018-08-09T14:35:47.360Z,41.96
2018-08-09T14:38:17.526Z,40.56
2018-08-09T14:40:46.673Z,39.96
2018-08-09T14:43:15.449Z,39.26
2018-08-09T14:45:44.291Z,40.70
2018-08-09T14:48:13.091Z,40.02
2018-08-09T14:50:41.854Z,39.68
2018-08-09T14:53:10.609Z,41.19
2018-08-09T14:55:40.188Z,40.04
2018-08-09T14:58:09.383Z,39.03
2018-08-09T15:00:38.163Z,39.79
2018-08-09T15:03:06.947Z,39.20
2018-08-09T15:05:36.176Z,39.80
2018-08-09T15:08:05.236Z,40.75
2018-08-09T15:10:34.527Z,41.10
2018-08-09T15:13:02.616Z,40.64
2018-08-09T15:15:32.230Z,41.21
2018-08-09T15:18:01.251Z,41.28
2018-08-09T15:20:30.279Z,41.84
2018-08-09T15:22:59.329Z,42.59
2018-08-09T15:25:28.132Z,42.59
2018-08-09T15:27:57.049Z,42.69
2018-08-09T15:30:26.270Z,42.87
2018-08-09T15:32:55.541Z,42.91
2018-08-09T15:35:24.274Z,41.53
2018-08-09T15:37:53.083Z,42.45
2018-08-09T15:40:22.534Z,42.51
2018-08-09T15:42:50.439Z,41.95
2018-08-09T15:45:18.561Z,41.68
2018-08-09T15:47:46.545Z,41.94
2018-08-09T15:50:16.080Z,41.53
2018-08-09T15:52:45.610Z,41.00
2018-08-09T15:55:13.914Z,41.71
2018-08-09T15:57:42.800Z,41.33
2018-08-09T16:00:12.344Z,41.64
2018-08-09T16:02:40.456Z,41.51
2018-08-09T16:05:09.105Z,41.68
2018-08-09T16:07:37.164Z,41.32
2018-08-09T16:10:11.118Z,41.29
2018-08-09T16:12:40.360Z,41.84
2018-08-09T16:15:11.340Z,41.28
2018-08-09T16:17:40.171Z,42.47
2018-08-09T16:20:10.258Z,42.21
2018-08-09T16:22:39.111Z,41.09
2018-08-09T16:25:16.121Z,40.66
2018-08-09T16:27:45.514Z,40.34
2018-08-09T16:30:16.301Z,40.79
2018-08-09T16:32:45.768Z,40.99
2018-08-09T16:35:14.841Z,41.59
2018-08-09T16:37:44.714Z,41.02
2018-08-09T16:40:16.249Z,41.78
2018-08-09T16:42:45.044Z,42.07
2018-08-09T16:45:15.874Z,41.54
2018-08-09T16:47:44.950Z,41.38
2018-08-09T16:50:17.010Z,41.95
2018-08-09T16:52:47.472Z,41.29
2018-08-09T16:55:17.030Z,40.60
2018-08-09T16:57:46.037Z,41.09
2018-08-09T17:00:14.914Z,40.88
2018-08-09T17:02:44.114Z,41.39
2018-08-09T17:05:16.671Z,40.95
2018-08-09T17:07:45.553Z,41.41
2018-08-09T17:10:14.250Z,40.60
2018-08-09T17:12:43.061Z,41.23
2018-08-09T17:15:16.742Z,40.83
2018-08-09T17:17:44.604Z,41.20
2018-08-09T17:20:14.115Z,42.26
2018-08-09T17:22:43.388Z,42.06
2018-08-09T17:25:12.891Z,42.79
2018-08-09T17:27:42.001Z,44.41
2018-08-09T17:30:10.739Z,49.84
2018-08-09T17:32:38.601Z,48.26
2018-08-09T17:35:07.869Z,48.21
2018-08-09T17:37:36.937Z,49.63
2018-08-09T17:40:08.304Z,49.01
2018-08-09T17:42:38.644Z,52.17
2018-08-09T17:45:08.779Z,53.66
2018-08-09T17:47:37.924Z,59.22
2018-08-09T17:50:07.369Z,61.86
2018-08-09T17:52:37.386Z,62.58
2018-08-09T17:55:09.079Z,64.90
2018-08-09T17:57:39.095Z,66.34
2018-08-09T18:00:10.904Z,68.87
2018-08-09T18:02:40.242Z,68.84
2018-08-09T18:05:09.891Z,70.12
2018-08-09T18:07:38.750Z,70.00
2018-08-09T18:10:13.530Z,72.64
2018-08-09T18:12:43.044Z,73.37
2018-08-09T18:15:12.096Z,72.47
2018-08-09T18:17:41.284Z,74.53
2018-08-09T18:20:12.734Z,74.19
2018-08-09T18:22:41.890Z,74.50
2018-08-09T18:25:11.967Z,73.57
2018-08-09T18:27:41.092Z,77.91
2018-08-09T18:30:13.554Z,76.70
2018-08-09T18:32:42.739Z,81.46
2018-08-09T18:35:13.185Z,81.49
2018-08-09T18:37:43.105Z,83.43
2018-08-09T18:40:16.066Z,82.82
2018-08-09T18:42:45.012Z,83.69
2018-08-09T18:45:14.546Z,83.67
2018-08-09T18:47:44.082Z,83.44
2018-08-09T18:50:15.749Z,84.15
2018-08-09T18:52:46.296Z,84.25
2018-08-09T18:55:16.531Z,85.33
2018-08-09T18:57:46.591Z,85.79
2018-08-09T19:00:25.706Z,86.27
2018-08-09T19:02:56.212Z,85.28
2018-08-09T19:05:25.280Z,85.26
2018-08-09T19:07:54.074Z,86.15
2018-08-09T19:10:26.890Z,86.32
2018-08-09T19:12:56.680Z,86.45
2018-08-09T19:15:26.163Z,85.84
2018-08-09T19:17:55.845Z,86.36
2018-08-09T19:20:31.250Z,86.68
2018-08-09T19:23:00.725Z,86.94
2018-08-09T19:25:29.713Z,86.83
2018-08-09T19:27:58.649Z,86.11
2018-08-09T19:30:28.750Z,86.45
2018-08-09T19:32:57.948Z,87.53
2018-08-09T19:35:27.159Z,87.60
2018-08-09T19:37:56.003Z,87.35
2018-08-09T19:40:27.830Z,87.47
2018-08-09T19:42:56.849Z,87.59
2018-08-09T19:45:25.921Z,88.03
2018-08-09T19:47:54.942Z,88.80
2018-08-09T19:50:24.520Z,87.80
2018-08-09T19:52:53.579Z,89.18
2018-08-09T19:55:25.400Z,88.88
2018-08-09T19:57:55.477Z,88.96
2018-08-09T20:00:29.501Z,89.19
2018-08-09T20:02:58.822Z,88.83
2018-08-09T20:05:28.611Z,88.94
2018-08-09T20:07:58.075Z,89.24
2018-08-09T20:10:27.881Z,89.27
2018-08-09T20:12:58.099Z,89.29
2018-08-09T20:15:27.462Z,89.36
2018-08-09T20:17:56.686Z,89.21
2018-08-09T20:20:26.330Z,89.68
2018-08-09T20:22:56.448Z,89.34
2018-08-09T20:25:25.331Z,90.02
2018-08-09T20:27:54.744Z,90.21
2018-08-09T20:30:23.741Z,90.69
2018-08-09T20:32:52.898Z,90.20
2018-08-09T20:35:24.116Z,90.28
2018-08-09T20:37:53.590Z,91.40
2018-08-09T20:40:23.548Z,91.15
2018-08-09T20:42:54.260Z,91.69
2018-08-09T20:45:23.940Z,91.19
2018-08-09T20:47:53.128Z,91.57
2018-08-09T20:50:25.366Z,91.51
2018-08-09T20:52:54.624Z,91.64
2018-08-09T20:55:23.441Z,91.43
2018-08-09T20:57:52.895Z,91.33
2018-08-09T21:00:23.972Z,91.60
2018-08-09T21:02:55.260Z,91.97
2018-08-09T21:05:25.781Z,91.47
2018-08-09T21:07:55.443Z,91.87
2018-08-09T21:10:24.511Z,91.93
2018-08-09T21:12:53.435Z,91.82
2018-08-09T21:15:22.333Z,92.36
2018-08-09T21:17:51.128Z,92.26
2018-08-09T21:20:20.015Z,92.70
2018-08-09T21:22:49.881Z,92.63
2018-08-09T21:25:19.168Z,92.79
2018-08-09T21:27:48.586Z,93.12
2018-08-09T21:30:19.896Z,92.98
2018-08-09T21:32:49.166Z,93.29
2018-08-09T21:35:18.072Z,93.19
2018-08-09T21:37:47.338Z,93.31
2018-08-09T21:40:16.537Z,93.18
2018-08-09T21:42:45.332Z,94.30
2018-08-09T21:45:16.033Z,94.23
2018-08-09T21:47:45.152Z,94.23
2018-08-09T21:50:16.593Z,93.84
2018-08-09T21:52:45.588Z,94.21
2018-08-09T21:55:14.993Z,94.67
2018-08-09T21:57:44.891Z,94.32
2018-08-09T22:00:57.670Z,94.68
2018-08-09T22:03:28.685Z,94.91
2018-08-09T22:06:02.543Z,94.61
2018-08-09T22:08:36.751Z,94.46
2018-08-09T22:12:13.910Z,94.52
2018-08-09T22:14:47.957Z,94.76
2018-08-09T22:17:22.108Z,94.73
2018-08-09T22:20:57.316Z,94.99
2018-08-09T22:23:25.896Z,94.97
2018-08-09T22:25:54.665Z,95.19
2018-08-09T22:28:23.322Z,95.73
2018-08-09T22:30:51.487Z,94.82
2018-08-09T22:33:20.297Z,94.90
2018-08-09T22:35:48.111Z,95.58
2018-08-09T22:38:17.128Z,95.76
2018-08-09T22:40:45.916Z,96.02
2018-08-09T22:43:14.831Z,96.31
2018-08-09T22:45:44.392Z,95.83
2018-08-09T22:48:13.256Z,96.11
2018-08-09T22:50:42.145Z,96.14
2018-08-09T22:53:10.741Z,96.33
2018-08-09T22:55:40.110Z,96.71
2018-08-09T22:58:09.175Z,96.42
2018-08-09T23:00:38.087Z,97.15
2018-08-09T23:03:09.966Z,96.94
2018-08-09T23:05:38.051Z,96.93
2018-08-09T23:08:06.357Z,96.90
2018-08-09T23:10:34.161Z,96.51
2018-08-09T23:13:02.755Z,96.78
2018-08-09T23:15:31.815Z,96.83
2018-08-09T23:18:00.062Z,97.10
2018-08-09T23:20:29.113Z,97.05
2018-08-09T23:22:57.330Z,96.98
2018-08-09T23:25:26.042Z,96.89
2018-08-09T23:27:54.851Z,97.28
2018-08-09T23:30:24.753Z,97.65
2018-08-09T23:32:54.150Z,98.17
2018-08-09T23:35:22.808Z,97.89
2018-08-09T23:37:51.791Z,97.69
2018-08-09T23:40:20.455Z,97.72
2018-08-09T23:42:49.336Z,97.82
2018-08-09T23:45:18.447Z,97.81
2018-08-09T23:47:47.811Z,97.41
2018-08-09T23:50:17.071Z,97.16
2018-08-09T23:52:45.785Z,97.03
2018-08-09T23:55:16.315Z,96.90
2018-08-09T23:57:45.226Z,96.94
